Catàleg de serveis del Meteocat
Campanya meteocatpedra

Dades de l'estació automàtica el Perelló

?
?
Resum diari 23:00 TU
Dades diàries de l'estació meteorològica
Temperatura mitjana 26.3 °C
Temperatura màxima 34.9 °C 14:49 TU
Temperatura mínima 20.8 °C 23:29 TU
Humitat relativa mitjana 46%
Precipitació acumulada 0.0 mm
Ratxa màxima del vent (10 m) 67.7 km/h - 319º 6:54 TU
Pressió atmosfèrica mitjana 1010.9 hPa
Irradiació solar global 30.2 MJ/m2

El tram horari està expressat en Temps Universal (TU). Cal sumar una hora en horari d'hivern i dues en horari d'estiu per passar a l'hora oficial.

el Perelló

Metadades estació meteorol´gica
Municipi El Perelló
Comarca Baix Ebre
Altitud 179 m
Data alta 05.02.1998
Estat actual Operativa
Dades de període
Període
TU
TM
°C
TX
°C
TN
°C
HRM
%
PPT
mm
VVM (10 m)
km/h
DVM (10 m)
graus
VVX (10 m)
km/h
PM
hPa
RS
W/m2
00:00 - 00:30 24.0 24.4 23.8 41 0.0 15.8 9 27.7 1011.0 0
00:30 - 01:00 23.7 23.9 23.4 42 0.0 14.8 349 30.6 1010.9 0
01:00 - 01:30 23.5 23.6 23.3 42 0.0 20.2 305 34.6 1010.8 0
01:30 - 02:00 23.2 23.3 23.1 42 0.0 19.4 308 34.2 1010.9 0
02:00 - 02:30 23.0 23.2 22.8 42 0.0 16.2 305 33.5 1010.7 0
02:30 - 03:00 22.7 22.9 22.6 43 0.0 15.5 312 26.6 1010.7 0
03:00 - 03:30 22.5 22.7 22.0 43 0.0 12.6 324 33.1 1010.8 0
03:30 - 04:00 21.8 22.2 21.0 45 0.0 13.0 332 35.6 1010.7 0
04:00 - 04:30 22.3 22.4 22.0 44 0.0 21.6 312 43.2 1010.5 0
04:30 - 05:00 21.8 22.1 21.6 47 0.0 24.8 322 44.3 1010.3 6
05:00 - 05:30 21.9 22.0 21.8 47 0.0 32.4 318 51.5 1010.0 57
05:30 - 06:00 22.0 22.1 21.9 47 0.0 36.0 325 58.7 1010.1 143
06:00 - 06:30 22.2 22.4 22.1 47 0.0 37.8 328 61.9 1010.2 233
06:30 - 07:00 22.6 22.8 22.4 47 0.0 42.8 327 67.7 1010.3 323
07:00 - 07:30 23.1 23.5 22.7 47 0.0 39.6 330 66.6 1010.4 423
07:30 - 08:00 23.8 24.6 23.4 45 0.0 36.4 336 60.8 1010.6 521
08:00 - 08:30 24.8 25.1 24.3 43 0.0 33.1 346 56.9 1010.6 611
08:30 - 09:00 25.3 25.7 25.1 42 0.0 33.5 336 56.5 1010.8 692
09:00 - 09:30 26.0 26.7 25.4 41 0.0 33.5 337 53.6 1010.7 765
09:30 - 10:00 26.9 27.8 26.3 39 0.0 29.2 332 47.2 1010.8 832
10:00 - 10:30 28.1 28.7 27.6 38 0.0 25.9 342 41.0 1010.7 882
10:30 - 11:00 28.6 28.9 28.3 37 0.0 25.6 331 41.8 1010.6 927
11:00 - 11:30 29.7 30.4 28.9 35 0.0 19.8 333 37.4 1010.5 956
11:30 - 12:00 30.2 31.0 29.4 34 0.0 19.8 319 37.4 1010.2 971
12:00 - 12:30 30.6 31.4 30.0 34 0.0 27.0 327 41.4 1009.8 974
12:30 - 13:00 31.6 32.9 30.9 31 0.0 22.7 335 38.2 1009.5 963
13:00 - 13:30 32.1 32.9 31.5 30 0.0 19.1 334 38.5 1009.4 930
13:30 - 14:00 32.5 33.0 31.9 29 0.0 19.1 333 38.5 1009.1 853
14:00 - 14:30 33.1 34.1 32.4 28 0.0 16.9 349 38.2 1009.0 832
14:30 - 15:00 34.0 34.9 33.3 26 0.0 13.7 333 30.2 1008.9 765
15:00 - 15:30 33.7 34.2 33.3 25 0.0 13.0 329 26.3 1009.0 705
15:30 - 16:00 31.3 33.1 30.3 40 0.0 13.3 157 25.2 1009.1 628
16:00 - 16:30 33.1 33.6 31.9 24 0.0 16.6 323 34.2 1009.0 539
16:30 - 17:00 32.8 33.2 32.5 21 0.0 21.6 308 36.7 1009.3 453
17:00 - 17:30 31.1 33.4 30.0 37 0.0 12.6 211 27.0 1009.4 358
17:30 - 18:00 31.7 33.5 29.8 30 0.0 12.6 250 28.4 1009.7 255
18:00 - 18:30 28.7 29.6 27.9 47 0.0 15.5 194 25.6 1010.3 159
18:30 - 19:00 27.1 27.8 25.7 55 0.0 9.0 95 27.7 1011.1 73
19:00 - 19:30 25.0 25.6 24.4 72 0.0 18.0 80 27.4 1011.8 11
19:30 - 20:00 24.1 24.4 23.8 77 0.0 14.8 80 24.8 1012.6 0
20:00 - 20:30 23.7 23.8 23.5 76 0.0 10.1 80 22.7 1013.5 0
20:30 - 21:00 23.3 23.5 23.2 76 0.0 6.8 76 16.6 1014.1 0
21:00 - 21:30 23.0 23.2 22.8 76 0.0 4.7 79 11.9 1014.5 0
21:30 - 22:00 22.8 22.9 22.7 79 0.0 4.0 89 7.9 1014.7 0
22:00 - 22:30 22.4 22.7 21.9 80 0.0 2.2 110 5.8 1015.0 0
22:30 - 23:00 21.5 21.9 21.3 82 0.0 2.2 252 4.0 1015.2 0
23:00 - 23:30 21.0 21.3 20.8 84 0.0 5.0 248 7.9 1015.4 0

Les dades en taronja només han passat un control de qualitat automàtic. Resta pendent la seva validació definitiva.